Terminal Aerodrome Forecast
Issued by NWS Upton, NY

Home | Current Version | Previous Version | Text Only | Print | Product List | Glossary On
Versions: 1 2 3 4 5 6 7 8 9 10 11 12 13 14 15 16 17 18 19 20 21 22 23 24 25 26 27 28 29 30 31
000
FTUS41 KOKX 200500
TAFEWR
TAF
KEWR 200531Z 2006/2112 VRB03KT P6SM SCT080
     FM201200 09005KT P6SM SCT030 SCT250
     FM201500 14007KT P6SM SCT050 SCT250
     FM201700 15009KT P6SM SCT050 SCT250
     FM210200 15005KT P6SM SCT050 BKN150
     FM210700 VRB04KT P6SM BKN050 BKN150=

USA.gov is the U.S. government's official web portal to all federal, state and local government web resources and services.